Historyczne dane pomiarowe

Dodano dane terminowe – wersja testowa.

Dane z okresu 1951-2019

Wersja bazy: 1.34 [2019-03-16, lista zmian], aktualizacja planowana na 2019-04-15

Dane meteo z obszaru Polski uzyskane na podstawie danych udostępnionych przez Instytut Meteorologii i Gospodarki Wodnej – Państwowy Instytut Badawczy.

 

Wybierz Datę:    

       

TemperaturaWilgotnośćWiatrCiśnienieOpadyŚniegCzas trwania zjawisk
 Stacja t tx tn tng RH VA  wxwx mslp ppp RRR   cm mm wxwxwxwxwxwxwx
1994-08-14 15.6 18.7 13.1- 62.8- 4.0 4.0---- 0.0------------
1994-08-13 17.6 22.7 14.7- 77.5- 6.0 3.0---- 0.0------------
1994-08-12 17.3 19.4 15.0- 78.5- 4.7 3.0---- 5.7------------
1994-08-11 17.9 22.9 14.7- 95.5- 7.0 3.0---- 5.2------------
1994-08-10 20.1 26.3 13.9- 68.8- 3.3 3.0---- 0.3------------
1994-08-09 18.8 21.5 17.4- 96.0- 8.0 5.3---- 7.6------------
1994-08-08 21.1 29.5 17.5- 81.0- 6.0 2.0---- 2.2------------
1994-08-07 23.7 30.6 17.6- 65.8- 2.3 3.3---- 0.0------------
1994-08-06 24.5 31.6 17.6- 53.5- 2.0 6.3---- 0.0------------
1994-08-05 22.9 30.4 15.0- 68.8- 2.3 2.0---- 0.0------------
1994-08-04 21.8 28.0 17.2- 76.8- 5.0 2.0---- 0.0------------
1994-08-03 22.4 30.0 18.5- 76.5- 5.3 3.7---- 2.2------------
1994-08-02 24.1 29.6 17.2- 65.3- 3.3 3.0---- 0.0------------
1994-08-01 28.0 34.4 20.2- 57.5- 2.7 2.0---- 0.0------------
1994-07-31 26.5 33.6 18.1- 56.3- 2.0 4.0---- 0.0------------
1994-07-30 25.4 32.0 15.8- 57.3- 2.3 2.0---- 0.0------------
1994-07-29 24.8 32.4 16.0- 56.3- 2.7 2.0---- 0.0------------
1994-07-28 24.6 31.0 16.0- 58.0- 2.7 3.0---- 0.0------------
1994-07-27 24.3 32.0 16.0- 60.0- 3.0 2.0---- 0.0------------
1994-07-26 24.0 31.6 15.2- 59.5- 3.0 2.0---- 0.0------------
1994-07-25 24.0 30.4 14.1- 60.3- 3.0 3.0---- 0.0------------
1994-07-24 22.0 28.5 10.5- 61.3- 2.7 2.0---- 0.0------------
1994-07-23 21.3 26.3 10.6- 59.8- 3.0 3.0---- 0.0------------
1994-07-22 20.5 27.2 10.1- 60.5- 3.0 3.0---- 0.0------------
1994-07-21 18.0 24.9 9.1- 63.5- 3.7 3.0---- 0.0------------
1994-07-20 17.7 22.1 10.7- 66.3- 4.0 3.0---- 0.0------------
1994-07-19 19.0 23.9 12.7- 77.5- 4.0 2.0---- 0.0------------
1994-07-18 21.1 29.0 15.5- 79.5- 3.7 2.0---- 0.0------------
1994-07-17 20.4 28.6 15.4- 82.0- 3.7 2.0---- 0.4------------
1994-07-16 21.9 28.2 16.0- 69.8- 3.3 3.0---- 0.0------------
1994-07-15 21.2 26.5 13.5- 68.3- 4.0 2.0---- 0.0------------
1994-07-14 21.4 26.9 13.5- 68.3- 4.3 3.0---- 0.0------------
1994-07-13 19.5 25.9 12.1- 70.0- 4.3 3.0---- 0.0------------
1994-07-12 19.4 24.7 15.7- 78.5- 4.3 3.0---- 0.0------------
1994-07-11 17.4 23.7 12.5- 77.5- 4.3 3.0---- 0.0------------
1994-07-10 15.3 18.3 12.1- 85.8- 5.3 2.0---- 7.2------------
1994-07-09 16.3 18.0 12.1- 70.5- 5.7 5.0---- 16.4------------
1994-07-08 16.7 21.5 9.7- 68.5- 4.7 4.0---- 0.0------------
1994-07-07 18.6 25.5 11.5- 72.8- 5.3 5.3---- 17.6------------
1994-07-06 20.5 25.5 12.9- 61.0- 4.0 2.0---- 0.0------------
1994-07-05 21.0 24.5 12.9- 68.8- 3.7 3.0---- 0.0------------
1994-07-04 20.8 27.4 13.1- 61.8- 2.3 4.0---- 0.0------------
1994-07-03 18.3 24.3 9.1- 64.5- 2.3 2.0---- 0.0------------
1994-07-02 18.4 23.3 9.5- 64.8- 3.0 3.0---- 0.0------------
1994-07-01 19.5 22.5 16.5- 67.8- 4.0 3.7---- 0.0------------
1994-06-30 23.0 27.2 20.0- 77.5- 4.3 3.7---- 1.2------------
1994-06-29 23.0 29.4 16.4- 74.8- 2.7 3.7---- 0.0------------
1994-06-28 23.9 29.0 17.6- 77.8- 3.0 4.0---- 0.0------------
1994-06-27 25.9 30.0 22.1- 62.8- 2.7 4.0---- 0.0------------
1994-06-26 22.5 30.0 15.0- 62.0- 2.3 9.7---- 0.0------------
1994-06-25 15.9 21.4 5.0- 68.3- 3.3 4.0---- 0.0------------
1994-06-24 15.4 19.9 10.5- 55.3- 4.0 8.0---- 0.0------------
1994-06-23 18.2 24.5 16.3- 59.8- 4.3 9.7---- 0.0------------
1994-06-22 19.0 27.5 9.5- 64.0- 3.7 5.0---- 0.0------------
1994-06-21 15.8 20.5 10.6- 66.3- 4.0 3.0---- 0.0------------
1994-06-20 17.4 23.7 11.5- 65.0- 4.7 3.3---- 0.0------------
1994-06-19 19.0 24.5 11.9- 62.5- 5.3 4.0---- 0.0------------
1994-06-18 13.9 19.5 6.7- 62.8- 4.0 2.3---- 8.7------------
1994-06-17 12.2 17.3 8.3- 65.8- 6.0 9.7---- 0.0------------
1994-06-16 13.4 17.4 8.3- 66.8- 4.7 3.7---- 0.7------------
271.2 ms

 

Źródłem pochodzenia danych jest Instytut Meteorologii i Gospodarki Wodnej – Państwowy Instytut Badawczy. Dane Instytutu Meteorologii i Gospodarki Wodnej – Państwowego Instytutu Badawczego zostały przetworzone.

Dane źródłowe można odnaleźć na stronie https://dane.imgw.pl